sensor_id;sensor_type;location;lat;lon;timestamp;temperature;humidity
25504;DHT22;13410;52.114;5.718;2023-05-07T00:02:02;19.40;99.90
25504;DHT22;13410;52.114;5.718;2023-05-07T00:04:29;19.30;99.90
25504;DHT22;13410;52.114;5.718;2023-05-07T00:07:01;19.40;99.90
25504;DHT22;13410;52.114;5.718;2023-05-07T00:09:26;19.40;99.90
25504;DHT22;13410;52.114;5.718;2023-05-07T00:11:52;19.50;99.90
25504;DHT22;13410;52.114;5.718;2023-05-07T00:14:18;19.40;99.90
25504;DHT22;13410;52.114;5.718;2023-05-07T00:16:43;19.40;99.90
25504;DHT22;13410;52.114;5.718;2023-05-07T00:19:09;19.40;99.90
25504;DHT22;13410;52.114;5.718;2023-05-07T00:21:35;19.50;99.90
25504;DHT22;13410;52.114;5.718;2023-05-07T00:24:00;19.50;99.90
25504;DHT22;13410;52.114;5.718;2023-05-07T00:26:26;19.40;99.90
25504;DHT22;13410;52.114;5.718;2023-05-07T00:28:51;19.50;99.90
25504;DHT22;13410;52.114;5.718;2023-05-07T00:31:17;19.70;99.90
25504;DHT22;13410;52.114;5.718;2023-05-07T00:33:42;19.70;99.90
25504;DHT22;13410;52.114;5.718;2023-05-07T00:36:08;19.60;99.90
25504;DHT22;13410;52.114;5.718;2023-05-07T00:38:34;19.50;99.90
25504;DHT22;13410;52.114;5.718;2023-05-07T00:40:59;19.50;99.90
25504;DHT22;13410;52.114;5.718;2023-05-07T00:43:25;19.60;99.90
25504;DHT22;13410;52.114;5.718;2023-05-07T00:45:51;19.60;99.90
25504;DHT22;13410;52.114;5.718;2023-05-07T00:48:17;19.50;99.90
25504;DHT22;13410;52.114;5.718;2023-05-07T00:50:43;19.50;99.90
25504;DHT22;13410;52.114;5.718;2023-05-07T00:53:09;19.50;99.90
25504;DHT22;13410;52.114;5.718;2023-05-07T00:55:35;19.40;99.90
25504;DHT22;13410;52.114;5.718;2023-05-07T00:58:01;19.30;99.90
25504;DHT22;13410;52.114;5.718;2023-05-07T01:00:27;19.30;99.90
25504;DHT22;13410;52.114;5.718;2023-05-07T01:02:53;19.30;99.90
25504;DHT22;13410;52.114;5.718;2023-05-07T01:05:20;19.20;99.90
25504;DHT22;13410;52.114;5.718;2023-05-07T01:07:47;19.10;99.90
25504;DHT22;13410;52.114;5.718;2023-05-07T01:10:13;19.10;99.90
25504;DHT22;13410;52.114;5.718;2023-05-07T01:12:40;19.10;99.90
25504;DHT22;13410;52.114;5.718;2023-05-07T01:15:08;19.00;99.90
25504;DHT22;13410;52.114;5.718;2023-05-07T01:17:39;18.90;99.90
25504;DHT22;13410;52.114;5.718;2023-05-07T01:20:06;18.80;99.90
25504;DHT22;13410;52.114;5.718;2023-05-07T01:22:36;18.80;99.90
25504;DHT22;13410;52.114;5.718;2023-05-07T01:25:03;18.70;99.90
25504;DHT22;13410;52.114;5.718;2023-05-07T01:27:29;18.90;99.90
25504;DHT22;13410;52.114;5.718;2023-05-07T01:29:55;18.90;99.90
25504;DHT22;13410;52.114;5.718;2023-05-07T01:32:27;18.90;99.90
25504;DHT22;13410;52.114;5.718;2023-05-07T01:34:54;18.80;99.90
25504;DHT22;13410;52.114;5.718;2023-05-07T01:37:21;18.80;99.90
25504;DHT22;13410;52.114;5.718;2023-05-07T01:39:47;18.90;99.90
25504;DHT22;13410;52.114;5.718;2023-05-07T01:42:13;18.80;99.90
25504;DHT22;13410;52.114;5.718;2023-05-07T01:44:39;18.80;99.90
25504;DHT22;13410;52.114;5.718;2023-05-07T01:47:05;18.90;99.90
25504;DHT22;13410;52.114;5.718;2023-05-07T01:49:31;18.90;99.90
25504;DHT22;13410;52.114;5.718;2023-05-07T01:51:57;18.90;99.90
25504;DHT22;13410;52.114;5.718;2023-05-07T01:54:26;18.90;99.90
25504;DHT22;13410;52.114;5.718;2023-05-07T01:56:59;18.80;99.90
25504;DHT22;13410;52.114;5.718;2023-05-07T01:59:25;18.80;99.90
25504;DHT22;13410;52.114;5.718;2023-05-07T02:01:51;18.80;99.90
25504;DHT22;13410;52.114;5.718;2023-05-07T02:04:17;18.80;99.90
25504;DHT22;13410;52.114;5.718;2023-05-07T02:06:42;18.80;99.90
25504;DHT22;13410;52.114;5.718;2023-05-07T02:09:08;18.80;99.90
25504;DHT22;13410;52.114;5.718;2023-05-07T02:11:36;18.80;99.90
25504;DHT22;13410;52.114;5.718;2023-05-07T02:14:02;18.90;99.90
25504;DHT22;13410;52.114;5.718;2023-05-07T02:16:27;18.90;99.90
25504;DHT22;13410;52.114;5.718;2023-05-07T02:18:53;19.00;99.90
25504;DHT22;13410;52.114;5.718;2023-05-07T02:21:18;19.10;99.90
25504;DHT22;13410;52.114;5.718;2023-05-07T02:23:44;19.20;99.90
25504;DHT22;13410;52.114;5.718;2023-05-07T02:26:10;19.50;99.90
25504;DHT22;13410;52.114;5.718;2023-05-07T02:28:36;19.50;99.90
25504;DHT22;13410;52.114;5.718;2023-05-07T02:31:05;19.20;99.90
25504;DHT22;13410;52.114;5.718;2023-05-07T02:33:30;19.10;99.90
25504;DHT22;13410;52.114;5.718;2023-05-07T02:35:56;19.00;99.90
25504;DHT22;13410;52.114;5.718;2023-05-07T02:38:22;18.90;99.90
25504;DHT22;13410;52.114;5.718;2023-05-07T02:40:48;18.90;99.90
25504;DHT22;13410;52.114;5.718;2023-05-07T02:43:13;18.90;99.90
25504;DHT22;13410;52.114;5.718;2023-05-07T02:45:39;18.90;99.90
25504;DHT22;13410;52.114;5.718;2023-05-07T02:48:05;18.80;99.90
25504;DHT22;13410;52.114;5.718;2023-05-07T02:50:33;18.80;99.90
25504;DHT22;13410;52.114;5.718;2023-05-07T02:52:59;18.80;99.90
25504;DHT22;13410;52.114;5.718;2023-05-07T02:55:24;18.80;99.90
25504;DHT22;13410;52.114;5.718;2023-05-07T02:57:50;18.90;99.90
25504;DHT22;13410;52.114;5.718;2023-05-07T03:00:17;19.20;99.90
25504;DHT22;13410;52.114;5.718;2023-05-07T03:02:44;19.10;99.90
25504;DHT22;13410;52.114;5.718;2023-05-07T03:05:10;19.00;99.90
25504;DHT22;13410;52.114;5.718;2023-05-07T03:07:37;19.00;99.90
25504;DHT22;13410;52.114;5.718;2023-05-07T03:10:03;18.90;99.90
25504;DHT22;13410;52.114;5.718;2023-05-07T03:12:29;18.90;99.90
25504;DHT22;13410;52.114;5.718;2023-05-07T03:14:55;18.90;99.90
25504;DHT22;13410;52.114;5.718;2023-05-07T03:17:22;18.70;99.90
25504;DHT22;13410;52.114;5.718;2023-05-07T03:19:47;18.70;99.90
25504;DHT22;13410;52.114;5.718;2023-05-07T03:22:13;18.70;99.90
25504;DHT22;13410;52.114;5.718;2023-05-07T03:24:39;18.60;99.90
25504;DHT22;13410;52.114;5.718;2023-05-07T03:27:04;18.60;99.90
25504;DHT22;13410;52.114;5.718;2023-05-07T03:29:30;18.60;99.90
25504;DHT22;13410;52.114;5.718;2023-05-07T03:31:55;18.70;99.90
25504;DHT22;13410;52.114;5.718;2023-05-07T03:34:21;18.70;99.90
25504;DHT22;13410;52.114;5.718;2023-05-07T03:36:50;18.70;99.90
25504;DHT22;13410;52.114;5.718;2023-05-07T03:39:16;18.70;99.90
25504;DHT22;13410;52.114;5.718;2023-05-07T03:41:41;18.70;99.90
25504;DHT22;13410;52.114;5.718;2023-05-07T03:44:07;18.60;99.90
25504;DHT22;13410;52.114;5.718;2023-05-07T03:46:33;18.70;99.90
25504;DHT22;13410;52.114;5.718;2023-05-07T03:48:59;18.60;99.90
25504;DHT22;13410;52.114;5.718;2023-05-07T03:51:25;18.70;99.90
25504;DHT22;13410;52.114;5.718;2023-05-07T03:53:52;18.50;99.90
25504;DHT22;13410;52.114;5.718;2023-05-07T03:56:22;18.50;99.90
25504;DHT22;13410;52.114;5.718;2023-05-07T03:58:48;18.40;99.90
25504;DHT22;13410;52.114;5.718;2023-05-07T04:01:14;18.40;99.90
25504;DHT22;13410;52.114;5.718;2023-05-07T04:03:39;18.40;99.90
25504;DHT22;13410;52.114;5.718;2023-05-07T04:06:05;18.40;99.90
25504;DHT22;13410;52.114;5.718;2023-05-07T04:08:31;18.30;99.90
25504;DHT22;13410;52.114;5.718;2023-05-07T04:10:57;18.20;99.90
25504;DHT22;13410;52.114;5.718;2023-05-07T04:13:23;18.30;99.90
25504;DHT22;13410;52.114;5.718;2023-05-07T04:15:49;18.20;99.90
25504;DHT22;13410;52.114;5.718;2023-05-07T04:18:15;18.30;99.90
25504;DHT22;13410;52.114;5.718;2023-05-07T04:20:41;18.30;99.90
25504;DHT22;13410;52.114;5.718;2023-05-07T04:23:07;18.30;99.90
25504;DHT22;13410;52.114;5.718;2023-05-07T04:25:32;18.30;99.90
25504;DHT22;13410;52.114;5.718;2023-05-07T04:27:58;18.30;99.90
25504;DHT22;13410;52.114;5.718;2023-05-07T04:30:24;18.40;99.90
25504;DHT22;13410;52.114;5.718;2023-05-07T04:32:50;18.40;99.90
25504;DHT22;13410;52.114;5.718;2023-05-07T04:35:16;18.40;99.90
25504;DHT22;13410;52.114;5.718;2023-05-07T04:37:41;18.40;99.90
25504;DHT22;13410;52.114;5.718;2023-05-07T04:40:07;18.50;99.90
25504;DHT22;13410;52.114;5.718;2023-05-07T04:42:33;18.50;99.90
25504;DHT22;13410;52.114;5.718;2023-05-07T04:44:58;18.50;99.90
25504;DHT22;13410;52.114;5.718;2023-05-07T04:47:24;18.60;99.90
25504;DHT22;13410;52.114;5.718;2023-05-07T04:49:49;18.50;99.90
25504;DHT22;13410;52.114;5.718;2023-05-07T04:52:15;18.50;99.90
25504;DHT22;13410;52.114;5.718;2023-05-07T04:54:42;18.40;99.90
25504;DHT22;13410;52.114;5.718;2023-05-07T04:57:07;18.30;99.90
25504;DHT22;13410;52.114;5.718;2023-05-07T04:59:33;18.40;99.90
25504;DHT22;13410;52.114;5.718;2023-05-07T05:01:58;18.40;99.90
25504;DHT22;13410;52.114;5.718;2023-05-07T05:04:24;18.50;99.90
25504;DHT22;13410;52.114;5.718;2023-05-07T05:06:50;18.50;99.90
25504;DHT22;13410;52.114;5.718;2023-05-07T05:09:15;18.50;99.90
25504;DHT22;13410;52.114;5.718;2023-05-07T05:11:41;18.50;99.90
25504;DHT22;13410;52.114;5.718;2023-05-07T05:14:07;18.50;99.90
25504;DHT22;13410;52.114;5.718;2023-05-07T05:16:32;18.60;99.90
25504;DHT22;13410;52.114;5.718;2023-05-07T05:18:58;18.50;99.90
25504;DHT22;13410;52.114;5.718;2023-05-07T05:21:24;18.40;99.90
25504;DHT22;13410;52.114;5.718;2023-05-07T05:23:50;18.50;99.90
25504;DHT22;13410;52.114;5.718;2023-05-07T05:26:15;18.40;99.90
25504;DHT22;13410;52.114;5.718;2023-05-07T05:28:41;18.50;99.90
25504;DHT22;13410;52.114;5.718;2023-05-07T05:31:06;18.60;99.90
25504;DHT22;13410;52.114;5.718;2023-05-07T05:33:32;18.60;99.90
25504;DHT22;13410;52.114;5.718;2023-05-07T05:35:57;18.40;99.90
25504;DHT22;13410;52.114;5.718;2023-05-07T05:38:23;18.50;99.90
25504;DHT22;13410;52.114;5.718;2023-05-07T05:40:49;18.60;99.90
25504;DHT22;13410;52.114;5.718;2023-05-07T05:43:14;18.70;99.90
25504;DHT22;13410;52.114;5.718;2023-05-07T05:45:40;18.70;99.90
25504;DHT22;13410;52.114;5.718;2023-05-07T05:48:06;18.80;99.90
25504;DHT22;13410;52.114;5.718;2023-05-07T05:50:31;18.60;99.90
25504;DHT22;13410;52.114;5.718;2023-05-07T05:52:57;18.50;99.90
25504;DHT22;13410;52.114;5.718;2023-05-07T05:55:23;18.30;99.90
25504;DHT22;13410;52.114;5.718;2023-05-07T05:57:49;18.20;99.90
25504;DHT22;13410;52.114;5.718;2023-05-07T06:00:16;18.30;99.90
25504;DHT22;13410;52.114;5.718;2023-05-07T06:02:41;18.10;99.90
25504;DHT22;13410;52.114;5.718;2023-05-07T06:05:08;18.20;99.90
25504;DHT22;13410;52.114;5.718;2023-05-07T06:07:34;18.30;99.90
25504;DHT22;13410;52.114;5.718;2023-05-07T06:10:00;18.50;99.90
25504;DHT22;13410;52.114;5.718;2023-05-07T06:12:26;18.40;99.90
25504;DHT22;13410;52.114;5.718;2023-05-07T06:14:51;18.60;99.90
25504;DHT22;13410;52.114;5.718;2023-05-07T06:17:17;18.60;99.90
25504;DHT22;13410;52.114;5.718;2023-05-07T06:19:43;18.60;99.90
25504;DHT22;13410;52.114;5.718;2023-05-07T06:22:08;18.80;99.90
25504;DHT22;13410;52.114;5.718;2023-05-07T06:24:34;19.00;99.90
25504;DHT22;13410;52.114;5.718;2023-05-07T06:27:00;19.00;99.90
25504;DHT22;13410;52.114;5.718;2023-05-07T06:29:25;19.00;99.90
25504;DHT22;13410;52.114;5.718;2023-05-07T06:31:53;19.10;99.90
25504;DHT22;13410;52.114;5.718;2023-05-07T06:34:18;19.00;99.90
25504;DHT22;13410;52.114;5.718;2023-05-07T06:36:44;19.00;99.90
25504;DHT22;13410;52.114;5.718;2023-05-07T06:39:09;19.20;99.90
25504;DHT22;13410;52.114;5.718;2023-05-07T06:41:35;19.20;99.90
25504;DHT22;13410;52.114;5.718;2023-05-07T06:44:02;19.30;99.90
25504;DHT22;13410;52.114;5.718;2023-05-07T06:46:28;19.30;99.90
25504;DHT22;13410;52.114;5.718;2023-05-07T06:48:54;19.30;99.90
25504;DHT22;13410;52.114;5.718;2023-05-07T06:51:20;19.30;99.90
25504;DHT22;13410;52.114;5.718;2023-05-07T06:53:45;19.20;99.90
25504;DHT22;13410;52.114;5.718;2023-05-07T06:56:11;19.30;99.90
25504;DHT22;13410;52.114;5.718;2023-05-07T06:58:37;19.20;99.90
25504;DHT22;13410;52.114;5.718;2023-05-07T07:01:03;19.30;99.90
25504;DHT22;13410;52.114;5.718;2023-05-07T07:03:29;19.40;99.90
25504;DHT22;13410;52.114;5.718;2023-05-07T07:05:55;19.40;99.90
25504;DHT22;13410;52.114;5.718;2023-05-07T07:08:22;19.50;99.90
25504;DHT22;13410;52.114;5.718;2023-05-07T07:10:47;19.40;99.90
25504;DHT22;13410;52.114;5.718;2023-05-07T07:13:13;19.60;99.90
25504;DHT22;13410;52.114;5.718;2023-05-07T07:15:39;19.80;99.90
25504;DHT22;13410;52.114;5.718;2023-05-07T07:18:05;20.00;99.90
25504;DHT22;13410;52.114;5.718;2023-05-07T07:20:31;20.10;99.90
25504;DHT22;13410;52.114;5.718;2023-05-07T07:22:57;20.20;99.90
25504;DHT22;13410;52.114;5.718;2023-05-07T07:25:22;20.30;99.90
25504;DHT22;13410;52.114;5.718;2023-05-07T07:27:49;20.40;99.90
25504;DHT22;13410;52.114;5.718;2023-05-07T07:30:15;20.40;99.90
25504;DHT22;13410;52.114;5.718;2023-05-07T07:32:40;20.40;99.90
25504;DHT22;13410;52.114;5.718;2023-05-07T07:35:07;20.50;99.90
25504;DHT22;13410;52.114;5.718;2023-05-07T07:37:32;20.30;99.90
25504;DHT22;13410;52.114;5.718;2023-05-07T07:39:58;20.20;99.90
25504;DHT22;13410;52.114;5.718;2023-05-07T07:42:23;20.20;99.90
25504;DHT22;13410;52.114;5.718;2023-05-07T07:44:49;20.30;99.90
25504;DHT22;13410;52.114;5.718;2023-05-07T07:47:15;20.30;99.90
25504;DHT22;13410;52.114;5.718;2023-05-07T07:49:41;20.50;99.90
25504;DHT22;13410;52.114;5.718;2023-05-07T07:52:06;20.80;99.90
25504;DHT22;13410;52.114;5.718;2023-05-07T07:54:32;21.10;99.90
25504;DHT22;13410;52.114;5.718;2023-05-07T07:56:58;21.30;99.90
25504;DHT22;13410;52.114;5.718;2023-05-07T07:59:23;21.50;99.90
25504;DHT22;13410;52.114;5.718;2023-05-07T08:01:49;21.50;99.90
25504;DHT22;13410;52.114;5.718;2023-05-07T08:04:15;21.60;99.90
25504;DHT22;13410;52.114;5.718;2023-05-07T08:06:41;21.20;99.90
25504;DHT22;13410;52.114;5.718;2023-05-07T08:09:07;21.10;99.90
25504;DHT22;13410;52.114;5.718;2023-05-07T08:11:33;21.10;99.90
25504;DHT22;13410;52.114;5.718;2023-05-07T08:13:59;21.10;99.90
25504;DHT22;13410;52.114;5.718;2023-05-07T08:16:24;21.20;99.90
25504;DHT22;13410;52.114;5.718;2023-05-07T08:18:50;21.10;99.90
25504;DHT22;13410;52.114;5.718;2023-05-07T08:21:16;21.20;99.90
25504;DHT22;13410;52.114;5.718;2023-05-07T08:23:41;21.30;99.90
25504;DHT22;13410;52.114;5.718;2023-05-07T08:26:08;21.20;99.90
25504;DHT22;13410;52.114;5.718;2023-05-07T08:28:33;21.20;99.90
25504;DHT22;13410;52.114;5.718;2023-05-07T08:30:59;21.30;99.90
25504;DHT22;13410;52.114;5.718;2023-05-07T08:33:26;21.20;99.90
25504;DHT22;13410;52.114;5.718;2023-05-07T08:35:52;21.20;99.90
25504;DHT22;13410;52.114;5.718;2023-05-07T08:38:17;21.30;99.90
25504;DHT22;13410;52.114;5.718;2023-05-07T08:40:43;21.60;99.90
25504;DHT22;13410;52.114;5.718;2023-05-07T08:43:12;21.50;99.90
25504;DHT22;13410;52.114;5.718;2023-05-07T08:45:39;21.50;99.90
25504;DHT22;13410;52.114;5.718;2023-05-07T08:48:09;21.50;99.90
25504;DHT22;13410;52.114;5.718;2023-05-07T08:50:36;21.60;99.90
25504;DHT22;13410;52.114;5.718;2023-05-07T08:53:03;21.70;99.90
25504;DHT22;13410;52.114;5.718;2023-05-07T08:55:29;21.60;99.90
25504;DHT22;13410;52.114;5.718;2023-05-07T08:57:55;21.50;99.90
25504;DHT22;13410;52.114;5.718;2023-05-07T09:00:21;21.40;99.90
25504;DHT22;13410;52.114;5.718;2023-05-07T09:02:46;21.20;99.90
25504;DHT22;13410;52.114;5.718;2023-05-07T09:05:12;21.20;99.90
25504;DHT22;13410;52.114;5.718;2023-05-07T09:07:38;21.10;99.90
25504;DHT22;13410;52.114;5.718;2023-05-07T09:10:04;21.00;99.90
25504;DHT22;13410;52.114;5.718;2023-05-07T09:12:30;21.00;99.90
25504;DHT22;13410;52.114;5.718;2023-05-07T09:14:56;21.00;99.90
25504;DHT22;13410;52.114;5.718;2023-05-07T09:17:21;20.80;99.90
25504;DHT22;13410;52.114;5.718;2023-05-07T09:19:47;20.70;99.90
25504;DHT22;13410;52.114;5.718;2023-05-07T09:22:13;20.80;99.90
25504;DHT22;13410;52.114;5.718;2023-05-07T09:24:40;20.90;99.90
25504;DHT22;13410;52.114;5.718;2023-05-07T09:27:06;21.20;99.90
25504;DHT22;13410;52.114;5.718;2023-05-07T09:29:32;21.40;99.90
25504;DHT22;13410;52.114;5.718;2023-05-07T09:32:05;21.50;99.90
25504;DHT22;13410;52.114;5.718;2023-05-07T09:34:31;21.50;99.90
25504;DHT22;13410;52.114;5.718;2023-05-07T09:37:00;21.40;99.90
25504;DHT22;13410;52.114;5.718;2023-05-07T09:39:26;21.50;99.90
25504;DHT22;13410;52.114;5.718;2023-05-07T09:41:51;21.50;99.90
25504;DHT22;13410;52.114;5.718;2023-05-07T09:44:20;21.70;99.90
25504;DHT22;13410;52.114;5.718;2023-05-07T09:46:50;21.90;99.90
25504;DHT22;13410;52.114;5.718;2023-05-07T09:49:21;22.00;99.90
25504;DHT22;13410;52.114;5.718;2023-05-07T09:51:49;22.30;99.90
25504;DHT22;13410;52.114;5.718;2023-05-07T09:54:16;22.30;99.90
25504;DHT22;13410;52.114;5.718;2023-05-07T09:56:45;22.30;99.90
25504;DHT22;13410;52.114;5.718;2023-05-07T09:59:14;22.40;99.90
25504;DHT22;13410;52.114;5.718;2023-05-07T10:01:41;22.60;99.90
25504;DHT22;13410;52.114;5.718;2023-05-07T10:04:07;22.60;99.90
25504;DHT22;13410;52.114;5.718;2023-05-07T10:06:35;22.80;99.90
25504;DHT22;13410;52.114;5.718;2023-05-07T10:09:02;23.10;99.90
25504;DHT22;13410;52.114;5.718;2023-05-07T10:11:29;23.10;99.90
25504;DHT22;13410;52.114;5.718;2023-05-07T10:13:55;23.30;99.90
25504;DHT22;13410;52.114;5.718;2023-05-07T10:16:21;23.30;99.90
25504;DHT22;13410;52.114;5.718;2023-05-07T10:18:47;23.50;99.90
25504;DHT22;13410;52.114;5.718;2023-05-07T10:21:18;23.60;99.90
25504;DHT22;13410;52.114;5.718;2023-05-07T10:23:55;23.60;99.90
25504;DHT22;13410;52.114;5.718;2023-05-07T10:26:22;23.60;99.90
25504;DHT22;13410;52.114;5.718;2023-05-07T10:28:51;23.60;99.90
25504;DHT22;13410;52.114;5.718;2023-05-07T10:33:46;23.70;99.90
25504;DHT22;13410;52.114;5.718;2023-05-07T10:36:12;23.70;99.90
25504;DHT22;13410;52.114;5.718;2023-05-07T10:38:38;24.10;99.90
25504;DHT22;13410;52.114;5.718;2023-05-07T10:41:06;24.10;99.90
25504;DHT22;13410;52.114;5.718;2023-05-07T10:43:42;24.20;99.90
25504;DHT22;13410;52.114;5.718;2023-05-07T10:46:11;24.00;99.90
25504;DHT22;13410;52.114;5.718;2023-05-07T10:51:29;23.90;99.90
25504;DHT22;13410;52.114;5.718;2023-05-07T10:56:36;24.40;99.90
25504;DHT22;13410;52.114;5.718;2023-05-07T11:02:05;24.80;99.90
25504;DHT22;13410;52.114;5.718;2023-05-07T11:04:35;24.90;99.90
25504;DHT22;13410;52.114;5.718;2023-05-07T11:09:58;24.80;99.90
25504;DHT22;13410;52.114;5.718;2023-05-07T11:15:11;24.80;99.90
25504;DHT22;13410;52.114;5.718;2023-05-07T11:17:57;25.00;99.90
25504;DHT22;13410;52.114;5.718;2023-05-07T11:20:56;24.90;99.90
25504;DHT22;13410;52.114;5.718;2023-05-07T11:26:07;25.30;99.90
25504;DHT22;13410;52.114;5.718;2023-05-07T11:28:41;25.30;99.90
25504;DHT22;13410;52.114;5.718;2023-05-07T11:31:07;25.50;99.90
25504;DHT22;13410;52.114;5.718;2023-05-07T11:33:34;25.60;99.90
25504;DHT22;13410;52.114;5.718;2023-05-07T11:36:01;25.70;99.90
25504;DHT22;13410;52.114;5.718;2023-05-07T11:38:29;25.90;99.90
25504;DHT22;13410;52.114;5.718;2023-05-07T11:40:57;25.50;99.90
25504;DHT22;13410;52.114;5.718;2023-05-07T11:43:23;25.50;99.90
25504;DHT22;13410;52.114;5.718;2023-05-07T11:45:49;25.60;99.90
25504;DHT22;13410;52.114;5.718;2023-05-07T11:48:16;25.60;99.90
25504;DHT22;13410;52.114;5.718;2023-05-07T11:51:01;25.00;99.90
25504;DHT22;13410;52.114;5.718;2023-05-07T11:53:38;25.20;99.90
25504;DHT22;13410;52.114;5.718;2023-05-07T11:56:11;25.60;99.90
25504;DHT22;13410;52.114;5.718;2023-05-07T11:58:38;25.70;99.90
25504;DHT22;13410;52.114;5.718;2023-05-07T12:01:04;25.30;99.90
25504;DHT22;13410;52.114;5.718;2023-05-07T12:03:29;25.30;99.90
25504;DHT22;13410;52.114;5.718;2023-05-07T12:05:55;25.50;99.90
25504;DHT22;13410;52.114;5.718;2023-05-07T12:08:21;25.60;99.90
25504;DHT22;13410;52.114;5.718;2023-05-07T12:10:49;25.60;99.90
25504;DHT22;13410;52.114;5.718;2023-05-07T12:13:19;25.50;99.90
25504;DHT22;13410;52.114;5.718;2023-05-07T12:15:45;25.60;99.90
25504;DHT22;13410;52.114;5.718;2023-05-07T12:18:12;25.50;99.90
25504;DHT22;13410;52.114;5.718;2023-05-07T12:20:39;25.50;99.90
25504;DHT22;13410;52.114;5.718;2023-05-07T12:23:05;25.30;99.90
25504;DHT22;13410;52.114;5.718;2023-05-07T12:25:31;25.00;99.90
25504;DHT22;13410;52.114;5.718;2023-05-07T12:27:57;24.80;99.90
25504;DHT22;13410;52.114;5.718;2023-05-07T12:30:25;25.10;99.90
25504;DHT22;13410;52.114;5.718;2023-05-07T12:32:54;25.00;99.90
25504;DHT22;13410;52.114;5.718;2023-05-07T12:35:30;25.50;99.90
25504;DHT22;13410;52.114;5.718;2023-05-07T12:38:00;25.60;99.90
25504;DHT22;13410;52.114;5.718;2023-05-07T12:43:15;25.80;99.90
25504;DHT22;13410;52.114;5.718;2023-05-07T12:45:42;25.80;99.90
25504;DHT22;13410;52.114;5.718;2023-05-07T12:48:10;25.50;99.90
25504;DHT22;13410;52.114;5.718;2023-05-07T12:50:36;25.50;99.90
25504;DHT22;13410;52.114;5.718;2023-05-07T12:53:04;25.10;99.90
25504;DHT22;13410;52.114;5.718;2023-05-07T12:55:43;25.10;99.90
25504;DHT22;13410;52.114;5.718;2023-05-07T12:58:27;25.00;99.90
25504;DHT22;13410;52.114;5.718;2023-05-07T13:00:54;25.10;99.90
25504;DHT22;13410;52.114;5.718;2023-05-07T13:03:31;24.70;99.90
25504;DHT22;13410;52.114;5.718;2023-05-07T13:06:02;24.40;99.90
25504;DHT22;13410;52.114;5.718;2023-05-07T13:08:38;23.90;99.90
25504;DHT22;13410;52.114;5.718;2023-05-07T13:11:11;23.60;99.90
25504;DHT22;13410;52.114;5.718;2023-05-07T13:13:38;23.40;99.90
25504;DHT22;13410;52.114;5.718;2023-05-07T13:16:05;23.20;99.90
25504;DHT22;13410;52.114;5.718;2023-05-07T13:18:32;23.10;99.90
25504;DHT22;13410;52.114;5.718;2023-05-07T13:20:58;23.00;99.90
25504;DHT22;13410;52.114;5.718;2023-05-07T13:23:24;22.80;99.90
25504;DHT22;13410;52.114;5.718;2023-05-07T13:25:50;22.60;99.90
25504;DHT22;13410;52.114;5.718;2023-05-07T13:28:17;22.50;99.90
25504;DHT22;13410;52.114;5.718;2023-05-07T13:30:43;22.40;99.90
25504;DHT22;13410;52.114;5.718;2023-05-07T13:33:09;22.60;99.90
25504;DHT22;13410;52.114;5.718;2023-05-07T13:35:35;22.50;99.90
25504;DHT22;13410;52.114;5.718;2023-05-07T13:38:01;22.50;99.90
25504;DHT22;13410;52.114;5.718;2023-05-07T13:40:26;22.50;99.90
25504;DHT22;13410;52.114;5.718;2023-05-07T13:42:52;22.30;99.90
25504;DHT22;13410;52.114;5.718;2023-05-07T13:45:18;22.30;99.90
25504;DHT22;13410;52.114;5.718;2023-05-07T13:47:45;22.20;99.90
25504;DHT22;13410;52.114;5.718;2023-05-07T13:50:12;22.10;99.90
25504;DHT22;13410;52.114;5.718;2023-05-07T13:52:42;21.90;99.90
25504;DHT22;13410;52.114;5.718;2023-05-07T13:55:09;21.90;99.90
25504;DHT22;13410;52.114;5.718;2023-05-07T13:57:35;21.40;99.90
25504;DHT22;13410;52.114;5.718;2023-05-07T14:00:02;21.20;99.90
25504;DHT22;13410;52.114;5.718;2023-05-07T14:02:28;21.40;99.90
25504;DHT22;13410;52.114;5.718;2023-05-07T14:04:53;21.40;99.90
25504;DHT22;13410;52.114;5.718;2023-05-07T14:07:19;21.20;99.90
25504;DHT22;13410;52.114;5.718;2023-05-07T14:09:44;21.50;99.90
25504;DHT22;13410;52.114;5.718;2023-05-07T14:12:10;21.70;99.90
25504;DHT22;13410;52.114;5.718;2023-05-07T14:14:36;21.70;99.90
25504;DHT22;13410;52.114;5.718;2023-05-07T14:17:01;22.00;99.90
25504;DHT22;13410;52.114;5.718;2023-05-07T14:19:27;22.20;99.90
25504;DHT22;13410;52.114;5.718;2023-05-07T14:21:52;22.00;99.90
25504;DHT22;13410;52.114;5.718;2023-05-07T14:24:18;22.10;99.90
25504;DHT22;13410;52.114;5.718;2023-05-07T14:26:43;22.00;99.90
25504;DHT22;13410;52.114;5.718;2023-05-07T14:29:10;21.60;99.90
25504;DHT22;13410;52.114;5.718;2023-05-07T14:31:36;21.60;99.90
25504;DHT22;13410;52.114;5.718;2023-05-07T14:34:01;21.70;99.90
25504;DHT22;13410;52.114;5.718;2023-05-07T14:36:27;21.80;99.90
25504;DHT22;13410;52.114;5.718;2023-05-07T14:38:53;22.00;99.90
25504;DHT22;13410;52.114;5.718;2023-05-07T14:41:20;22.00;99.90
25504;DHT22;13410;52.114;5.718;2023-05-07T14:43:47;21.90;99.90
25504;DHT22;13410;52.114;5.718;2023-05-07T14:46:19;22.10;99.90
25504;DHT22;13410;52.114;5.718;2023-05-07T14:48:47;22.20;99.90
25504;DHT22;13410;52.114;5.718;2023-05-07T14:51:13;22.40;99.90
25504;DHT22;13410;52.114;5.718;2023-05-07T14:53:40;22.50;99.90
25504;DHT22;13410;52.114;5.718;2023-05-07T14:56:06;22.70;99.90
25504;DHT22;13410;52.114;5.718;2023-05-07T14:58:31;22.80;99.90
25504;DHT22;13410;52.114;5.718;2023-05-07T15:00:57;22.80;99.90
25504;DHT22;13410;52.114;5.718;2023-05-07T15:03:22;22.80;99.90
25504;DHT22;13410;52.114;5.718;2023-05-07T15:05:48;22.90;99.90
25504;DHT22;13410;52.114;5.718;2023-05-07T15:08:17;22.90;99.90
25504;DHT22;13410;52.114;5.718;2023-05-07T15:10:42;23.00;99.90
25504;DHT22;13410;52.114;5.718;2023-05-07T15:13:09;23.00;99.90
25504;DHT22;13410;52.114;5.718;2023-05-07T15:15:34;22.80;99.90
25504;DHT22;13410;52.114;5.718;2023-05-07T15:18:00;22.60;99.90
25504;DHT22;13410;52.114;5.718;2023-05-07T15:20:26;22.40;99.90
25504;DHT22;13410;52.114;5.718;2023-05-07T15:22:52;22.30;99.90
25504;DHT22;13410;52.114;5.718;2023-05-07T15:25:17;22.30;99.90
25504;DHT22;13410;52.114;5.718;2023-05-07T15:27:43;22.50;99.90
25504;DHT22;13410;52.114;5.718;2023-05-07T15:30:09;22.30;99.90
25504;DHT22;13410;52.114;5.718;2023-05-07T15:32:36;22.10;99.90
25504;DHT22;13410;52.114;5.718;2023-05-07T15:35:04;22.00;99.90
25504;DHT22;13410;52.114;5.718;2023-05-07T15:37:33;21.80;99.90
25504;DHT22;13410;52.114;5.718;2023-05-07T15:39:59;21.80;99.90
25504;DHT22;13410;52.114;5.718;2023-05-07T15:42:24;22.10;99.90
25504;DHT22;13410;52.114;5.718;2023-05-07T15:44:50;22.10;99.90
25504;DHT22;13410;52.114;5.718;2023-05-07T15:47:16;22.10;99.90
25504;DHT22;13410;52.114;5.718;2023-05-07T15:49:43;22.20;99.90